createdAt,value
2019-06-25T00:00:04.785Z,27.2
2019-06-25T00:15:04.544Z,27
2019-06-25T00:30:04.570Z,26.9
2019-06-25T00:45:04.910Z,26.8
2019-06-25T01:00:12.816Z,26.7
2019-06-25T01:15:04.949Z,26.5
2019-06-25T01:30:04.447Z,26.5
2019-06-25T01:45:04.261Z,26.4
2019-06-25T02:00:04.640Z,26.2
2019-06-25T02:15:04.972Z,25.8
2019-06-25T02:30:04.448Z,25.9
2019-06-25T02:45:04.249Z,25.9
2019-06-25T03:00:07.041Z,25.7
2019-06-25T03:15:04.059Z,25.6
2019-06-25T03:30:05.005Z,25.3
2019-06-25T03:45:05.016Z,25.4
2019-06-25T04:00:04.797Z,25.3
2019-06-25T04:15:04.925Z,25.2
2019-06-25T04:30:04.692Z,25.3
2019-06-25T04:45:04.975Z,25.5
2019-06-25T05:00:04.296Z,25.2
2019-06-25T05:15:04.648Z,25.7
2019-06-25T05:30:04.260Z,26.1
2019-06-25T05:45:04.124Z,26.3
2019-06-25T06:00:05.012Z,26.6
2019-06-25T06:15:04.417Z,26.8
2019-06-25T06:30:04.914Z,27
2019-06-25T06:45:04.247Z,27.4
2019-06-25T07:00:04.050Z,27.8
2019-06-25T07:15:04.422Z,28.2
2019-06-25T07:30:04.340Z,28.7
2019-06-25T07:45:04.181Z,29.7
2019-06-25T08:00:04.957Z,30.9
2019-06-25T08:15:04.278Z,31.6
2019-06-25T08:30:04.276Z,32.4
2019-06-25T08:45:04.691Z,33
2019-06-25T09:00:04.928Z,33.7
2019-06-25T09:15:04.558Z,33.7
2019-06-25T09:30:05.029Z,34
2019-06-25T09:45:04.362Z,34.2
2019-06-25T10:00:04.270Z,34.3
2019-06-25T10:15:04.834Z,34.2
2019-06-25T10:30:04.786Z,34.2
2019-06-25T10:45:04.044Z,34.2
2019-06-25T11:00:04.447Z,34.1
2019-06-25T11:15:04.722Z,33.8
2019-06-25T11:30:04.142Z,33.8
2019-06-25T11:45:04.420Z,33.9
2019-06-25T12:00:04.262Z,34
2019-06-25T12:15:04.648Z,34
2019-06-25T12:30:04.817Z,34.2
2019-06-25T12:45:04.233Z,34.1
2019-06-25T13:00:04.962Z,34.3
2019-06-25T13:15:04.246Z,34.6
2019-06-25T13:30:04.307Z,34.5
2019-06-25T13:45:04.327Z,34.6
2019-06-25T14:00:04.051Z,34.9
2019-06-25T14:15:04.854Z,34.9
2019-06-25T14:30:04.863Z,34.9
2019-06-25T14:45:04.127Z,35
2019-06-25T15:00:04.908Z,35.1
2019-06-25T15:15:07.317Z,35.1
2019-06-25T15:30:04.524Z,35.2
2019-06-25T15:45:04.440Z,35.3
2019-06-25T16:00:04.789Z,35.4
2019-06-25T16:15:04.544Z,35.5
2019-06-25T16:30:05.013Z,35.5
2019-06-25T16:45:04.316Z,35.5
2019-06-25T17:00:04.945Z,35.4
2019-06-25T17:15:04.282Z,35.3
2019-06-25T17:30:04.198Z,35.2
2019-06-25T17:45:05.000Z,35
2019-06-25T18:00:04.830Z,34.8
2019-06-25T18:15:04.159Z,34.4
2019-06-25T18:30:04.762Z,34
2019-06-25T18:45:04.970Z,33.7
2019-06-25T19:00:04.350Z,33.5
2019-06-25T19:15:04.766Z,33.2
2019-06-25T19:30:04.865Z,32.8
2019-06-25T19:45:04.289Z,32.4
2019-06-25T20:00:04.653Z,32.2
2019-06-25T20:15:04.589Z,31.9
2019-06-25T20:30:04.686Z,31.7
2019-06-25T20:45:04.133Z,31.5
2019-06-25T21:00:04.132Z,31.3
2019-06-25T21:15:04.904Z,30.9
2019-06-25T21:30:04.898Z,30.8
2019-06-25T21:45:04.267Z,30.6
2019-06-25T22:00:04.614Z,30.5
2019-06-25T22:15:04.855Z,30.3
2019-06-25T22:30:04.326Z,30.1
2019-06-25T22:45:04.670Z,29.9
2019-06-25T23:00:04.445Z,29.7
2019-06-25T23:15:04.831Z,29.5
2019-06-25T23:30:04.429Z,29.4
2019-06-25T23:45:04.721Z,29.3
